sensor_id;sensor_type;location;lat;lon;timestamp;pressure;altitude;pressure_sealevel;temperature;humidity
59531;BME280;45349;48.692;8.186;2023-11-21T00:01:07;148293.28;;;8.53;100.00
59531;BME280;45349;48.692;8.186;2023-11-21T00:03:34;148299.50;;;8.55;100.00
59531;BME280;45349;48.692;8.186;2023-11-21T00:06:02;148303.22;;;8.57;100.00
59531;BME280;45349;48.692;8.186;2023-11-21T00:08:30;148302.00;;;8.56;100.00
59531;BME280;45349;48.692;8.186;2023-11-21T00:10:56;148302.00;;;8.56;100.00
59531;BME280;45349;48.692;8.186;2023-11-21T00:13:25;148306.97;;;8.59;100.00
59531;BME280;45349;48.692;8.186;2023-11-21T00:15:52;148310.69;;;8.60;100.00
59531;BME280;45349;48.692;8.186;2023-11-21T00:18:19;148315.66;;;8.62;100.00
59531;BME280;45349;48.692;8.186;2023-11-21T00:20:45;148304.50;;;8.57;100.00
59531;BME280;45349;48.692;8.186;2023-11-21T00:23:13;148300.72;;;8.56;100.00
59531;BME280;45349;48.692;8.186;2023-11-21T00:25:40;148300.72;;;8.56;100.00
59531;BME280;45349;48.692;8.186;2023-11-21T00:28:06;148295.75;;;8.54;100.00
59531;BME280;45349;48.692;8.186;2023-11-21T00:30:33;148264.63;;;8.41;100.00
59531;BME280;45349;48.692;8.186;2023-11-21T00:33:00;148253.47;;;8.36;100.00
59531;BME280;45349;48.692;8.186;2023-11-21T00:35:26;148262.16;;;8.40;100.00
59531;BME280;45349;48.692;8.186;2023-11-21T00:37:53;148260.94;;;8.39;100.00
59531;BME280;45349;48.692;8.186;2023-11-21T00:40:21;148262.16;;;8.40;100.00
59531;BME280;45349;48.692;8.186;2023-11-21T00:42:48;148260.94;;;8.39;100.00
59531;BME280;45349;48.692;8.186;2023-11-21T00:45:14;148253.47;;;8.36;100.00
59531;BME280;45349;48.692;8.186;2023-11-21T00:47:41;148263.41;;;8.40;100.00
59531;BME280;45349;48.692;8.186;2023-11-21T00:50:08;148268.41;;;8.42;100.00
59531;BME280;45349;48.692;8.186;2023-11-21T00:52:35;148272.09;;;8.44;100.00
59531;BME280;45349;48.692;8.186;2023-11-21T00:55:02;148289.56;;;8.51;100.00
59531;BME280;45349;48.692;8.186;2023-11-21T00:57:31;148284.59;;;8.49;100.00
59531;BME280;45349;48.692;8.186;2023-11-21T00:59:57;148278.34;;;8.47;100.00
59531;BME280;45349;48.692;8.186;2023-11-21T01:02:24;148280.84;;;8.48;100.00
59531;BME280;45349;48.692;8.186;2023-11-21T01:04:51;148280.84;;;8.48;100.00
59531;BME280;45349;48.692;8.186;2023-11-21T01:07:17;148280.84;;;8.48;100.00
59531;BME280;45349;48.692;8.186;2023-11-21T01:09:45;148288.28;;;8.51;100.00
59531;BME280;45349;48.692;8.186;2023-11-21T01:12:12;148285.81;;;8.50;100.00
59531;BME280;45349;48.692;8.186;2023-11-21T01:14:40;148282.06;;;8.48;100.00
59531;BME280;45349;48.692;8.186;2023-11-21T01:17:07;148283.31;;;8.49;100.00
59531;BME280;45349;48.692;8.186;2023-11-21T01:19:34;148272.09;;;8.44;100.00
59531;BME280;45349;48.692;8.186;2023-11-21T01:22:00;148273.38;;;8.45;100.00
59531;BME280;45349;48.692;8.186;2023-11-21T01:24:30;148273.38;;;8.45;100.00
59531;BME280;45349;48.692;8.186;2023-11-21T01:26:56;148274.59;;;8.45;100.00
59531;BME280;45349;48.692;8.186;2023-11-21T01:29:23;148279.56;;;8.47;100.00
59531;BME280;45349;48.692;8.186;2023-11-21T01:31:51;148268.41;;;8.42;100.00
59531;BME280;45349;48.692;8.186;2023-11-21T01:34:18;148259.66;;;8.39;100.00
59531;BME280;45349;48.692;8.186;2023-11-21T01:36:45;148257.19;;;8.38;100.00
59531;BME280;45349;48.692;8.186;2023-11-21T01:39:12;148263.41;;;8.40;100.00
59531;BME280;45349;48.692;8.186;2023-11-21T01:41:40;148268.41;;;8.42;100.00
59531;BME280;45349;48.692;8.186;2023-11-21T01:44:09;148274.59;;;8.45;100.00
59531;BME280;45349;48.692;8.186;2023-11-21T01:46:36;148265.91;;;8.41;100.00
59531;BME280;45349;48.692;8.186;2023-11-21T01:49:06;148249.72;;;8.35;100.00
59531;BME280;45349;48.692;8.186;2023-11-21T01:51:35;148247.22;;;8.34;100.00
59531;BME280;45349;48.692;8.186;2023-11-21T01:54:03;148250.97;;;8.35;100.00
59531;BME280;45349;48.692;8.186;2023-11-21T01:56:31;148250.97;;;8.35;100.00
59531;BME280;45349;48.692;8.186;2023-11-21T01:58:58;148253.47;;;8.36;100.00
59531;BME280;45349;48.692;8.186;2023-11-21T02:01:25;148257.19;;;8.38;100.00
59531;BME280;45349;48.692;8.186;2023-11-21T02:03:52;148257.19;;;8.38;100.00
59531;BME280;45349;48.692;8.186;2023-11-21T02:06:21;148255.97;;;8.37;100.00
59531;BME280;45349;48.692;8.186;2023-11-21T02:08:52;148233.56;;;8.28;100.00
59531;BME280;45349;48.692;8.186;2023-11-21T02:11:19;148233.56;;;8.28;100.00
59531;BME280;45349;48.692;8.186;2023-11-21T02:13:46;148231.09;;;8.27;100.00
59531;BME280;45349;48.692;8.186;2023-11-21T02:16:15;148228.59;;;8.26;100.00
59531;BME280;45349;48.692;8.186;2023-11-21T02:18:42;148214.91;;;8.20;100.00
59531;BME280;45349;48.692;8.186;2023-11-21T02:21:09;148209.91;;;8.18;100.00
59531;BME280;45349;48.692;8.186;2023-11-21T02:23:38;148206.22;;;8.17;100.00
59531;BME280;45349;48.692;8.186;2023-11-21T02:26:08;148188.81;;;8.09;100.00
59531;BME280;45349;48.692;8.186;2023-11-21T02:28:35;148196.25;;;8.12;100.00
59531;BME280;45349;48.692;8.186;2023-11-21T02:31:02;148197.47;;;8.13;100.00
59531;BME280;45349;48.692;8.186;2023-11-21T02:33:30;148191.28;;;8.10;100.00
59531;BME280;45349;48.692;8.186;2023-11-21T02:35:59;148190.03;;;8.10;100.00
59531;BME280;45349;48.692;8.186;2023-11-21T02:38:25;148176.38;;;8.04;100.00
59531;BME280;45349;48.692;8.186;2023-11-21T02:40:53;148177.59;;;8.05;100.00
59531;BME280;45349;48.692;8.186;2023-11-21T02:43:20;148180.06;;;8.06;100.00
59531;BME280;45349;48.692;8.186;2023-11-21T02:45:47;148193.78;;;8.11;100.00
59531;BME280;45349;48.692;8.186;2023-11-21T02:48:13;148193.78;;;8.11;100.00
59531;BME280;45349;48.692;8.186;2023-11-21T02:50:40;148182.56;;;8.07;100.00
59531;BME280;45349;48.692;8.186;2023-11-21T02:53:08;148177.59;;;8.05;100.00
59531;BME280;45349;48.692;8.186;2023-11-21T02:55:36;148175.09;;;8.04;100.00
59531;BME280;45349;48.692;8.186;2023-11-21T02:58:04;148175.09;;;8.04;100.00
59531;BME280;45349;48.692;8.186;2023-11-21T03:00:31;148175.09;;;8.04;100.00
59531;BME280;45349;48.692;8.186;2023-11-21T03:02:59;148188.81;;;8.09;100.00
59531;BME280;45349;48.692;8.186;2023-11-21T03:05:26;148173.88;;;8.03;100.00
59531;BME280;45349;48.692;8.186;2023-11-21T03:07:54;148176.38;;;8.04;100.00
59531;BME280;45349;48.692;8.186;2023-11-21T03:10:20;148182.56;;;8.07;100.00
59531;BME280;45349;48.692;8.186;2023-11-21T03:12:48;148172.59;;;8.03;100.00
59531;BME280;45349;48.692;8.186;2023-11-21T03:15:16;148160.19;;;7.97;100.00
59531;BME280;45349;48.692;8.186;2023-11-21T03:17:43;148168.91;;;8.01;100.00
59531;BME280;45349;48.692;8.186;2023-11-21T03:20:10;148146.53;;;7.92;100.00
59531;BME280;45349;48.692;8.186;2023-11-21T03:22:39;148155.19;;;7.95;100.00
59531;BME280;45349;48.692;8.186;2023-11-21T03:25:06;148147.78;;;7.92;100.00
59531;BME280;45349;48.692;8.186;2023-11-21T03:27:35;148144.03;;;7.91;100.00
59531;BME280;45349;48.692;8.186;2023-11-21T03:30:03;148144.03;;;7.91;100.00
59531;BME280;45349;48.692;8.186;2023-11-21T03:32:34;148130.38;;;7.85;100.00
59531;BME280;45349;48.692;8.186;2023-11-21T03:35:01;148122.94;;;7.82;100.00
59531;BME280;45349;48.692;8.186;2023-11-21T03:37:28;148130.38;;;7.85;100.00
59531;BME280;45349;48.692;8.186;2023-11-21T03:39:55;148126.63;;;7.83;100.00
59531;BME280;45349;48.692;8.186;2023-11-21T03:42:22;148117.97;;;7.80;100.00
59531;BME280;45349;48.692;8.186;2023-11-21T03:44:50;148125.41;;;7.83;100.00
59531;BME280;45349;48.692;8.186;2023-11-21T03:47:17;148121.66;;;7.81;100.00
59531;BME280;45349;48.692;8.186;2023-11-21T03:49:46;148124.16;;;7.82;100.00
59531;BME280;45349;48.692;8.186;2023-11-21T03:52:15;148119.16;;;7.80;100.00
59531;BME280;45349;48.692;8.186;2023-11-21T03:54:42;148121.66;;;7.81;100.00
59531;BME280;45349;48.692;8.186;2023-11-21T03:57:09;148111.72;;;7.77;100.00
59531;BME280;45349;48.692;8.186;2023-11-21T03:59:36;148114.19;;;7.78;100.00
59531;BME280;45349;48.692;8.186;2023-11-21T04:02:03;148105.53;;;7.75;100.00
59531;BME280;45349;48.692;8.186;2023-11-21T04:04:30;148115.47;;;7.79;100.00
59531;BME280;45349;48.692;8.186;2023-11-21T04:06:58;148106.75;;;7.75;100.00
59531;BME280;45349;48.692;8.186;2023-11-21T04:09:24;148110.50;;;7.77;100.00
59531;BME280;45349;48.692;8.186;2023-11-21T04:11:51;148115.47;;;7.79;100.00
59531;BME280;45349;48.692;8.186;2023-11-21T04:14:17;148111.72;;;7.77;100.00
59531;BME280;45349;48.692;8.186;2023-11-21T04:16:44;148108.00;;;7.76;100.00
59531;BME280;45349;48.692;8.186;2023-11-21T04:19:11;148100.56;;;7.73;100.00
59531;BME280;45349;48.692;8.186;2023-11-21T04:21:39;148116.69;;;7.79;100.00
59531;BME280;45349;48.692;8.186;2023-11-21T04:24:08;148119.16;;;7.80;100.00
59531;BME280;45349;48.692;8.186;2023-11-21T04:26:34;148121.66;;;7.81;100.00
59531;BME280;45349;48.692;8.186;2023-11-21T04:29:01;148116.69;;;7.79;100.00
59531;BME280;45349;48.692;8.186;2023-11-21T04:31:28;148117.97;;;7.80;100.00
59531;BME280;45349;48.692;8.186;2023-11-21T04:33:54;148111.72;;;7.77;100.00
59531;BME280;45349;48.692;8.186;2023-11-21T04:36:21;148115.47;;;7.79;100.00
59531;BME280;45349;48.692;8.186;2023-11-21T04:38:48;148119.16;;;7.80;100.00
59531;BME280;45349;48.692;8.186;2023-11-21T04:41:16;148122.94;;;7.82;100.00
59531;BME280;45349;48.692;8.186;2023-11-21T04:43:43;148119.16;;;7.80;100.00
59531;BME280;45349;48.692;8.186;2023-11-21T04:46:10;148120.44;;;7.81;100.00
59531;BME280;45349;48.692;8.186;2023-11-21T04:48:36;148114.19;;;7.78;100.00
59531;BME280;45349;48.692;8.186;2023-11-21T04:51:03;148119.16;;;7.80;100.00
59531;BME280;45349;48.692;8.186;2023-11-21T04:53:30;148114.19;;;7.78;100.00
59531;BME280;45349;48.692;8.186;2023-11-21T04:55:57;148111.72;;;7.77;100.00
59531;BME280;45349;48.692;8.186;2023-11-21T04:58:25;148103.03;;;7.74;100.00
59531;BME280;45349;48.692;8.186;2023-11-21T05:00:52;148100.56;;;7.73;100.00
59531;BME280;45349;48.692;8.186;2023-11-21T05:03:17;148085.63;;;7.66;100.00
59531;BME280;45349;48.692;8.186;2023-11-21T05:05:44;148088.13;;;7.67;100.00
59531;BME280;45349;48.692;8.186;2023-11-21T05:08:11;148080.66;;;7.64;100.00
59531;BME280;45349;48.692;8.186;2023-11-21T05:10:37;148080.66;;;7.64;100.00
59531;BME280;45349;48.692;8.186;2023-11-21T05:13:04;148076.91;;;7.63;100.00
59531;BME280;45349;48.692;8.186;2023-11-21T05:15:36;148081.88;;;7.65;100.00
59531;BME280;45349;48.692;8.186;2023-11-21T05:18:03;148089.34;;;7.68;100.00
59531;BME280;45349;48.692;8.186;2023-11-21T05:20:30;148103.03;;;7.74;100.00
59531;BME280;45349;48.692;8.186;2023-11-21T05:22:58;148073.19;;;7.61;100.00
59531;BME280;45349;48.692;8.186;2023-11-21T05:25:25;148076.91;;;7.63;100.00
59531;BME280;45349;48.692;8.186;2023-11-21T05:27:51;148073.19;;;7.61;100.00
59531;BME280;45349;48.692;8.186;2023-11-21T05:30:18;148076.91;;;7.63;100.00
59531;BME280;45349;48.692;8.186;2023-11-21T05:32:46;148065.75;;;7.58;100.00
59531;BME280;45349;48.692;8.186;2023-11-21T05:35:14;148065.75;;;7.58;100.00
59531;BME280;45349;48.692;8.186;2023-11-21T05:37:41;148074.41;;;7.62;100.00
59531;BME280;45349;48.692;8.186;2023-11-21T05:40:09;148063.25;;;7.57;100.00
59531;BME280;45349;48.692;8.186;2023-11-21T05:42:35;148058.28;;;7.55;100.00
59531;BME280;45349;48.692;8.186;2023-11-21T05:45:03;148055.78;;;7.54;100.00
59531;BME280;45349;48.692;8.186;2023-11-21T05:47:36;148038.41;;;7.47;100.00
59531;BME280;45349;48.692;8.186;2023-11-21T05:50:05;148039.63;;;7.47;100.00
59531;BME280;45349;48.692;8.186;2023-11-21T05:52:35;148044.59;;;7.49;100.00
59531;BME280;45349;48.692;8.186;2023-11-21T05:55:02;148043.38;;;7.49;100.00
59531;BME280;45349;48.692;8.186;2023-11-21T05:57:30;148042.09;;;7.48;100.00
59531;BME280;45349;48.692;8.186;2023-11-21T05:59:56;148038.41;;;7.47;100.00
59531;BME280;45349;48.692;8.186;2023-11-21T06:02:23;148042.09;;;7.48;100.00
59531;BME280;45349;48.692;8.186;2023-11-21T06:04:51;148037.13;;;7.46;100.00
59531;BME280;45349;48.692;8.186;2023-11-21T06:07:19;148037.13;;;7.46;100.00
59531;BME280;45349;48.692;8.186;2023-11-21T06:09:45;148037.13;;;7.46;100.00
59531;BME280;45349;48.692;8.186;2023-11-21T06:12:14;148032.16;;;7.44;100.00
59531;BME280;45349;48.692;8.186;2023-11-21T06:14:41;148042.09;;;7.48;100.00
59531;BME280;45349;48.692;8.186;2023-11-21T06:17:07;148037.13;;;7.46;100.00
59531;BME280;45349;48.692;8.186;2023-11-21T06:19:35;148037.13;;;7.46;100.00
59531;BME280;45349;48.692;8.186;2023-11-21T06:22:01;148033.41;;;7.45;100.00
59531;BME280;45349;48.692;8.186;2023-11-21T06:24:31;148042.09;;;7.48;100.00
59531;BME280;45349;48.692;8.186;2023-11-21T06:26:58;148032.16;;;7.44;100.00
59531;BME280;45349;48.692;8.186;2023-11-21T06:29:24;148032.16;;;7.44;100.00
59531;BME280;45349;48.692;8.186;2023-11-21T06:31:52;148028.44;;;7.43;100.00
59531;BME280;45349;48.692;8.186;2023-11-21T06:34:20;148033.41;;;7.45;100.00
59531;BME280;45349;48.692;8.186;2023-11-21T06:36:46;148035.91;;;7.46;100.00
59531;BME280;45349;48.692;8.186;2023-11-21T06:39:13;148047.06;;;7.50;100.00
59531;BME280;45349;48.692;8.186;2023-11-21T06:41:43;148030.94;;;7.44;100.00
59531;BME280;45349;48.692;8.186;2023-11-21T06:44:09;148030.94;;;7.44;100.00
59531;BME280;45349;48.692;8.186;2023-11-21T06:46:36;148039.63;;;7.47;100.00
59531;BME280;45349;48.692;8.186;2023-11-21T06:49:04;148042.09;;;7.48;100.00
59531;BME280;45349;48.692;8.186;2023-11-21T06:51:31;148043.38;;;7.49;100.00
59531;BME280;45349;48.692;8.186;2023-11-21T06:53:58;148027.19;;;7.42;100.00
59531;BME280;45349;48.692;8.186;2023-11-21T06:56:25;148033.41;;;7.45;100.00
59531;BME280;45349;48.692;8.186;2023-11-21T06:58:53;148039.63;;;7.47;100.00
59531;BME280;45349;48.692;8.186;2023-11-21T07:01:20;148047.06;;;7.50;100.00
59531;BME280;45349;48.692;8.186;2023-11-21T07:03:46;148048.34;;;7.51;100.00
59531;BME280;45349;48.692;8.186;2023-11-21T07:06:13;148053.31;;;7.53;100.00
59531;BME280;45349;48.692;8.186;2023-11-21T07:08:40;148052.03;;;7.52;100.00
59531;BME280;45349;48.692;8.186;2023-11-21T07:11:06;148060.78;;;7.56;100.00
59531;BME280;45349;48.692;8.186;2023-11-21T07:13:33;148059.50;;;7.56;100.00
59531;BME280;45349;48.692;8.186;2023-11-21T07:16:01;148035.91;;;7.46;100.00
59531;BME280;45349;48.692;8.186;2023-11-21T07:18:28;148045.84;;;7.50;100.00
59531;BME280;45349;48.692;8.186;2023-11-21T07:20:55;148042.09;;;7.48;100.00
59531;BME280;45349;48.692;8.186;2023-11-21T07:23:21;148055.78;;;7.54;100.00
59531;BME280;45349;48.692;8.186;2023-11-21T07:25:48;148064.47;;;7.58;100.00
59531;BME280;45349;48.692;8.186;2023-11-21T07:28:15;148064.47;;;7.58;100.00
59531;BME280;45349;48.692;8.186;2023-11-21T07:30:42;148069.44;;;7.60;100.00
59531;BME280;45349;48.692;8.186;2023-11-21T07:33:10;148083.16;;;7.65;100.00
59531;BME280;45349;48.692;8.186;2023-11-21T07:35:36;148065.75;;;7.58;100.00
59531;BME280;45349;48.692;8.186;2023-11-21T07:38:03;148066.97;;;7.59;100.00
59531;BME280;45349;48.692;8.186;2023-11-21T07:40:30;148054.53;;;7.53;100.00
59531;BME280;45349;48.692;8.186;2023-11-21T07:42:57;148043.38;;;7.49;100.00
59531;BME280;45349;48.692;8.186;2023-11-21T07:45:23;148044.59;;;7.49;100.00
59531;BME280;45349;48.692;8.186;2023-11-21T07:47:53;148021.00;;;7.39;100.00
59531;BME280;45349;48.692;8.186;2023-11-21T07:50:21;148017.28;;;7.38;100.00
59531;BME280;45349;48.692;8.186;2023-11-21T07:52:48;148002.38;;;7.32;100.00
59531;BME280;45349;48.692;8.186;2023-11-21T07:55:15;148007.34;;;7.34;100.00
59531;BME280;45349;48.692;8.186;2023-11-21T07:57:41;148004.84;;;7.33;100.00
59531;BME280;45349;48.692;8.186;2023-11-21T08:00:09;147998.63;;;7.30;100.00
59531;BME280;45349;48.692;8.186;2023-11-21T08:02:40;148008.56;;;7.34;100.00
59531;BME280;45349;48.692;8.186;2023-11-21T08:05:08;148019.78;;;7.39;100.00
59531;BME280;45349;48.692;8.186;2023-11-21T08:07:37;148024.75;;;7.41;100.00
59531;BME280;45349;48.692;8.186;2023-11-21T08:10:05;148029.66;;;7.43;100.00
59531;BME280;45349;48.692;8.186;2023-11-21T08:12:32;148037.13;;;7.46;100.00
59531;BME280;45349;48.692;8.186;2023-11-21T08:14:59;148044.59;;;7.49;100.00
59531;BME280;45349;48.692;8.186;2023-11-21T08:17:25;148065.75;;;7.58;100.00
59531;BME280;45349;48.692;8.186;2023-11-21T08:19:52;148075.69;;;7.62;100.00
59531;BME280;45349;48.692;8.186;2023-11-21T08:22:18;148070.72;;;7.60;100.00
59531;BME280;45349;48.692;8.186;2023-11-21T08:24:47;148085.63;;;7.66;100.00
59531;BME280;45349;48.692;8.186;2023-11-21T08:27:13;148086.84;;;7.67;100.00
59531;BME280;45349;48.692;8.186;2023-11-21T08:29:41;148091.81;;;7.69;100.00
59531;BME280;45349;48.692;8.186;2023-11-21T08:32:08;148104.25;;;7.74;100.00
59531;BME280;45349;48.692;8.186;2023-11-21T08:34:34;148116.69;;;7.79;100.00
59531;BME280;45349;48.692;8.186;2023-11-21T08:37:01;148117.97;;;7.80;100.00
59531;BME280;45349;48.692;8.186;2023-11-21T08:39:30;148142.81;;;7.90;100.00
59531;BME280;45349;48.692;8.186;2023-11-21T08:41:58;148122.94;;;7.82;100.00
59531;BME280;45349;48.692;8.186;2023-11-21T08:44:24;148119.16;;;7.80;100.00
59531;BME280;45349;48.692;8.186;2023-11-21T08:46:51;148137.84;;;7.88;100.00
59531;BME280;45349;48.692;8.186;2023-11-21T08:49:18;148145.31;;;7.91;100.00
59531;BME280;45349;48.692;8.186;2023-11-21T08:51:45;148171.41;;;8.02;100.00
59531;BME280;45349;48.692;8.186;2023-11-21T08:54:12;148206.22;;;8.17;100.00
59531;BME280;45349;48.692;8.186;2023-11-21T08:56:38;148203.72;;;8.16;100.00
59531;BME280;45349;48.692;8.186;2023-11-21T08:59:06;148229.81;;;8.26;100.00
59531;BME280;45349;48.692;8.186;2023-11-21T09:01:33;148216.16;;;8.21;100.00
59531;BME280;45349;48.692;8.186;2023-11-21T09:04:00;148247.22;;;8.34;100.00
59531;BME280;45349;48.692;8.186;2023-11-21T09:06:27;148231.09;;;8.27;100.00
59531;BME280;45349;48.692;8.186;2023-11-21T09:08:54;148273.38;;;8.45;100.00
59531;BME280;45349;48.692;8.186;2023-11-21T09:11:21;148227.34;;;8.25;100.00
59531;BME280;45349;48.692;8.186;2023-11-21T09:13:47;148227.34;;;8.25;100.00
59531;BME280;45349;48.692;8.186;2023-11-21T09:16:15;148221.13;;;8.23;100.00
59531;BME280;45349;48.692;8.186;2023-11-21T09:18:42;148270.88;;;8.44;100.00
59531;BME280;45349;48.692;8.186;2023-11-21T09:21:08;148272.09;;;8.44;100.00
59531;BME280;45349;48.692;8.186;2023-11-21T09:23:35;148224.84;;;8.24;100.00
59531;BME280;45349;48.692;8.186;2023-11-21T09:26:04;148303.22;;;8.57;100.00
59531;BME280;45349;48.692;8.186;2023-11-21T09:28:30;148277.06;;;8.46;100.00
59531;BME280;45349;48.692;8.186;2023-11-21T09:30:57;148298.25;;;8.55;100.00
59531;BME280;45349;48.692;8.186;2023-11-21T09:33:25;148316.94;;;8.63;100.00
59531;BME280;45349;48.692;8.186;2023-11-21T09:35:52;148343.03;;;8.74;100.00
59531;BME280;45349;48.692;8.186;2023-11-21T09:38:19;148339.31;;;8.72;100.00
59531;BME280;45349;48.692;8.186;2023-11-21T09:40:46;148336.84;;;8.71;100.00
59531;BME280;45349;48.692;8.186;2023-11-21T09:43:16;148346.78;;;8.75;100.00
59531;BME280;45349;48.692;8.186;2023-11-21T09:45:46;148314.44;;;8.62;100.00
59531;BME280;45349;48.692;8.186;2023-11-21T09:48:13;148333.06;;;8.69;100.00
59531;BME280;45349;48.692;8.186;2023-11-21T09:50:43;148316.94;;;8.63;100.00
59531;BME280;45349;48.692;8.186;2023-11-21T09:53:13;148316.94;;;8.63;100.00
59531;BME280;45349;48.692;8.186;2023-11-21T09:55:44;148309.47;;;8.60;100.00
59531;BME280;45349;48.692;8.186;2023-11-21T09:58:12;148246.00;;;8.33;100.00
59531;BME280;45349;48.692;8.186;2023-11-21T10:00:40;148231.09;;;8.27;100.00
59531;BME280;45349;48.692;8.186;2023-11-21T10:03:08;148244.75;;;8.33;100.00
59531;BME280;45349;48.692;8.186;2023-11-21T10:05:35;148193.78;;;8.11;100.00
59531;BME280;45349;48.692;8.186;2023-11-21T10:08:04;148204.94;;;8.16;100.00
59531;BME280;45349;48.692;8.186;2023-11-21T10:10:33;148173.88;;;8.03;100.00
59531;BME280;45349;48.692;8.186;2023-11-21T10:13:03;148193.78;;;8.11;100.00
59531;BME280;45349;48.692;8.186;2023-11-21T10:15:33;148213.66;;;8.20;100.00
59531;BME280;45349;48.692;8.186;2023-11-21T10:18:02;148224.84;;;8.24;100.00
59531;BME280;45349;48.692;8.186;2023-11-21T10:20:30;148221.13;;;8.23;100.00
59531;BME280;45349;48.692;8.186;2023-11-21T10:22:59;148216.16;;;8.21;100.00
59531;BME280;45349;48.692;8.186;2023-11-21T10:25:28;148211.19;;;8.19;100.00
59531;BME280;45349;48.692;8.186;2023-11-21T10:27:58;148233.56;;;8.28;100.00
59531;BME280;45349;48.692;8.186;2023-11-21T10:30:28;148233.56;;;8.28;100.00
59531;BME280;45349;48.692;8.186;2023-11-21T10:32:58;148243.53;;;8.32;100.00
59531;BME280;45349;48.692;8.186;2023-11-21T10:35:38;148218.66;;;8.22;100.00
59531;BME280;45349;48.692;8.186;2023-11-21T10:38:04;148191.28;;;8.10;100.00
59531;BME280;45349;48.692;8.186;2023-11-21T10:40:37;148209.91;;;8.18;100.00
59531;BME280;45349;48.692;8.186;2023-11-21T10:43:06;148161.44;;;7.98;100.00
59531;BME280;45349;48.692;8.186;2023-11-21T10:45:34;148190.03;;;8.10;100.00
59531;BME280;45349;48.692;8.186;2023-11-21T10:48:05;148213.66;;;8.20;100.00
59531;BME280;45349;48.692;8.186;2023-11-21T10:50:32;148212.41;;;8.19;100.00
59531;BME280;45349;48.692;8.186;2023-11-21T10:53:01;148229.81;;;8.26;100.00
59531;BME280;45349;48.692;8.186;2023-11-21T10:55:29;148238.53;;;8.30;100.00
59531;BME280;45349;48.692;8.186;2023-11-21T10:57:59;148262.16;;;8.40;100.00
59531;BME280;45349;48.692;8.186;2023-11-21T11:00:27;148283.31;;;8.49;100.00
59531;BME280;45349;48.692;8.186;2023-11-21T11:02:54;148284.59;;;8.49;100.00
59531;BME280;45349;48.692;8.186;2023-11-21T11:05:22;148277.06;;;8.46;100.00
59531;BME280;45349;48.692;8.186;2023-11-21T11:07:55;148243.53;;;8.32;100.00
59531;BME280;45349;48.692;8.186;2023-11-21T11:10:25;148241.03;;;8.31;100.00
59531;BME280;45349;48.692;8.186;2023-11-21T11:12:53;148241.03;;;8.31;100.00
59531;BME280;45349;48.692;8.186;2023-11-21T11:15:22;148228.59;;;8.26;100.00
59531;BME280;45349;48.692;8.186;2023-11-21T11:17:49;148270.88;;;8.44;100.00
59531;BME280;45349;48.692;8.186;2023-11-21T11:20:16;148253.47;;;8.36;100.00
59531;BME280;45349;48.692;8.186;2023-11-21T11:22:52;148249.72;;;8.35;100.00
59531;BME280;45349;48.692;8.186;2023-11-21T11:25:43;148275.84;;;8.46;100.00
59531;BME280;45349;48.692;8.186;2023-11-21T11:28:16;148294.53;;;8.53;100.00
59531;BME280;45349;48.692;8.186;2023-11-21T11:31:01;148299.50;;;8.55;100.00
59531;BME280;45349;48.692;8.186;2023-11-21T11:33:35;148314.44;;;8.62;100.00
59531;BME280;45349;48.692;8.186;2023-11-21T11:36:06;148311.94;;;8.61;100.00
59531;BME280;45349;48.692;8.186;2023-11-21T11:38:37;148321.91;;;8.65;100.00
59531;BME280;45349;48.692;8.186;2023-11-21T11:41:04;148341.81;;;8.73;100.00
59531;BME280;45349;48.692;8.186;2023-11-21T11:43:31;148355.47;;;8.79;100.00
59531;BME280;45349;48.692;8.186;2023-11-21T11:46:06;148370.41;;;8.85;100.00
59531;BME280;45349;48.692;8.186;2023-11-21T11:48:35;148352.97;;;8.78;100.00
59531;BME280;45349;48.692;8.186;2023-11-21T11:51:05;148360.44;;;8.81;100.00
59531;BME280;45349;48.692;8.186;2023-11-21T11:53:38;148352.97;;;8.78;100.00
59531;BME280;45349;48.692;8.186;2023-11-21T11:56:21;148351.75;;;8.77;100.00
59531;BME280;45349;48.692;8.186;2023-11-21T11:58:49;148351.75;;;8.77;100.00
59531;BME280;45349;48.692;8.186;2023-11-21T12:01:18;148376.66;;;8.88;100.00
59531;BME280;45349;48.692;8.186;2023-11-21T12:04:23;148355.47;;;8.79;100.00
59531;BME280;45349;48.692;8.186;2023-11-21T12:06:56;148371.66;;;8.85;100.00
59531;BME280;45349;48.692;8.186;2023-11-21T12:09:26;148394.06;;;8.95;100.00
59531;BME280;45349;48.692;8.186;2023-11-21T12:11:53;148395.28;;;8.95;100.00
59531;BME280;45349;48.692;8.186;2023-11-21T12:14:22;148384.09;;;8.91;100.00
59531;BME280;45349;48.692;8.186;2023-11-21T12:16:50;148394.06;;;8.95;100.00
59531;BME280;45349;48.692;8.186;2023-11-21T12:19:17;148354.25;;;8.78;100.00
59531;BME280;45349;48.692;8.186;2023-11-21T12:21:44;148354.25;;;8.78;100.00
59531;BME280;45349;48.692;8.186;2023-11-21T12:24:11;148338.06;;;8.71;100.00
59531;BME280;45349;48.692;8.186;2023-11-21T12:26:39;148340.53;;;8.73;100.00
59531;BME280;45349;48.692;8.186;2023-11-21T12:29:05;148334.34;;;8.70;100.00
59531;BME280;45349;48.692;8.186;2023-11-21T12:31:33;148328.09;;;8.67;100.00
59531;BME280;45349;48.692;8.186;2023-11-21T12:34:01;148333.06;;;8.69;100.00
59531;BME280;45349;48.692;8.186;2023-11-21T12:36:29;148316.94;;;8.63;100.00
59531;BME280;45349;48.692;8.186;2023-11-21T12:38:55;148300.72;;;8.56;100.00
59531;BME280;45349;48.692;8.186;2023-11-21T12:41:22;148308.19;;;8.59;100.00
59531;BME280;45349;48.692;8.186;2023-11-21T12:43:49;148280.84;;;8.48;100.00
59531;BME280;45349;48.692;8.186;2023-11-21T12:46:16;148263.41;;;8.40;100.00
59531;BME280;45349;48.692;8.186;2023-11-21T12:48:44;148243.53;;;8.32;100.00
59531;BME280;45349;48.692;8.186;2023-11-21T12:51:12;148254.69;;;8.37;100.00
59531;BME280;45349;48.692;8.186;2023-11-21T12:53:41;148259.66;;;8.39;100.00